Blocher, Indiana
Current Conditions -  °F | °C
As of 11:53 PM on Friday 28 Nov 2014 (Local Time) from KLOU Reporting Station
Clear Clear  
Wind Chill: 36°   Ceiling: Unl
Heat Index: 36°   Visibility: 10mi
Dew Point: 21°   Wind: 3mph
Humidity: 55%   Direction: 130°SE
Pressure: 30.07"   Gusts: NA
Location:  38.6522°N, 85.6465°W
Report Text: KLOU 290453Z AUTO 13003KT 10SM CLR 02/M06 A3007 RMK AO2 SLP187 T00221061 400391044
Loading
Personal Weather Stations






























Interactive Weather Map New forecast layout! Learn more

10-Day Weather Forecast

Advertisements
Track Severe Weather on mobile